Time;durP1;ratioP1;P1;durP2;ratioP2;P2;SDS_P1;SDS_P2;PMS_P1;PMS_P2;Temp;Humidity;BMP_temperature;BMP_pressure;BME280_temperature;BME280_humidity;BME280_pressure;Samples;Min_cycle;Max_cycle;Signal;HPM_P1;HPM_P2
2022/04/22 00:01:12;;;;;;;9.30;8.17;;;;;;;10.22;78.32;96948.38;4112654;28;20679;-84
2022/04/22 00:03:16;;;;;;;11.00;9.40;;;;;;;10.20;77.96;96942.47;4129357;28;20632;-84
2022/04/22 00:05:19;;;;;;;12.70;9.40;;;;;;;10.17;78.10;96940.13;4113893;28;20709;-84
2022/04/22 00:07:22;;;;;;;12.93;9.67;;;;;;;10.12;78.57;96945.72;4117010;28;21025;-84
2022/04/22 00:09:26;;;;;;;11.47;10.20;;;;;;;10.17;78.62;96940.94;4128700;28;21267;-84
2022/04/22 00:11:32;;;;;;;13.80;11.07;;;;;;;10.13;78.13;96938.72;4124248;28;20669;-84
2022/04/22 00:13:42;;;;;;;12.30;10.13;;;;;;;10.09;78.92;96945.19;4129195;28;20629;-84
2022/04/22 00:15:47;;;;;;;12.70;10.33;;;;;;;10.07;78.23;96945.31;4113870;28;20721;-84
2022/04/22 00:17:51;;;;;;;10.03;8.90;;;;;;;10.09;78.01;96938.19;4114122;28;21306;-84
2022/04/22 00:19:55;;;;;;;13.90;10.67;;;;;;;10.08;79.07;96939.13;4113376;28;20627;-84
2022/04/22 00:21:58;;;;;;;13.33;10.50;;;;;;;10.08;78.77;96931.31;4112132;28;21273;-84
2022/04/22 00:24:01;;;;;;;12.40;10.10;;;;;;;10.10;78.40;96937.22;4114610;28;20632;-84
2022/04/22 00:26:04;;;;;;;13.80;10.80;;;;;;;10.12;78.26;96939.72;4128179;28;20724;-84
2022/04/22 00:28:08;;;;;;;12.40;10.20;;;;;;;10.13;78.58;96933.53;4126437;28;20680;-84
2022/04/22 00:30:13;;;;;;;12.93;10.80;;;;;;;10.09;78.53;96934.75;4128449;28;20700;-84
2022/04/22 00:32:18;;;;;;;16.17;11.27;;;;;;;10.06;78.51;96932.41;4111811;28;21202;-84
2022/04/22 00:34:21;;;;;;;13.30;9.80;;;;;;;10.07;78.93;96929.69;4112714;28;20739;-84
2022/04/22 00:36:25;;;;;;;15.97;11.30;;;;;;;10.09;78.78;96939.97;4112476;28;20630;-84
2022/04/22 00:38:28;;;;;;;14.60;11.77;;;;;;;10.07;78.96;96939.25;4113852;28;20673;-84
2022/04/22 00:40:31;;;;;;;14.90;11.50;;;;;;;10.07;78.88;96936.66;4129773;28;21350;-84
2022/04/22 00:42:36;;;;;;;18.00;11.17;;;;;;;10.04;79.22;96927.34;4114043;28;20713;-84
2022/04/22 00:44:40;;;;;;;15.10;12.27;;;;;;;10.05;78.91;96944.59;4114252;28;21166;-84
2022/04/22 00:46:44;;;;;;;16.20;12.33;;;;;;;10.00;79.78;96933.75;4117072;28;20975;-83
2022/04/22 00:48:49;;;;;;;13.70;11.70;;;;;;;10.04;79.15;96934.31;4113656;28;20641;-84
2022/04/22 00:50:55;;;;;;;17.03;12.87;;;;;;;10.06;78.68;96935.03;4112837;28;20629;-84
2022/04/22 00:52:59;;;;;;;13.67;11.80;;;;;;;10.00;79.46;96925.94;4112196;28;21228;-84
2022/04/22 00:55:02;;;;;;;14.40;11.30;;;;;;;10.03;79.30;96927.47;4112355;28;20630;-84
2022/04/22 00:57:06;;;;;;;15.33;11.97;;;;;;;10.04;79.17;96923.88;4113713;28;20667;-84
2022/04/22 00:59:12;;;;;;;17.40;13.40;;;;;;;10.02;79.33;96934.44;4113322;28;21221;-84
2022/04/22 01:01:18;;;;;;;16.03;12.03;;;;;;;10.00;79.54;96933.75;4126568;28;20654;-84
2022/04/22 01:03:22;;;;;;;14.53;11.77;;;;;;;10.04;79.50;96931.69;4113914;28;20637;-84
2022/04/22 01:10:11;;;;;;;14.53;11.87;;;;;;;10.09;79.30;96927.75;4111133;28;20621;-84
2022/04/22 01:12:15;;;;;;;13.20;11.03;;;;;;;10.10;79.14;96920.75;4112369;28;21069;-84
2022/04/22 01:14:18;;;;;;;14.90;12.47;;;;;;;10.11;78.37;96925.84;4112920;28;20689;-84
2022/04/22 01:16:22;;;;;;;16.00;12.80;;;;;;;10.10;79.42;96921.59;4118270;28;20634;-83
2022/04/22 01:18:26;;;;;;;14.73;12.70;;;;;;;10.09;78.92;96922.53;4126981;28;21117;-84
2022/04/22 01:20:32;;;;;;;15.57;12.37;;;;;;;10.10;78.89;96915.53;4109934;28;20631;-84
2022/04/22 01:22:40;;;;;;;16.47;13.13;;;;;;;10.11;79.11;96912.00;4128851;28;20632;-84
2022/04/22 01:24:43;;;;;;;17.20;12.97;;;;;;;10.09;79.15;96901.72;4112654;28;20664;-84
2022/04/22 01:26:47;;;;;;;14.80;12.17;;;;;;;10.14;78.71;96896.91;4111122;28;20643;-84
2022/04/22 01:28:51;;;;;;;17.17;13.93;;;;;;;10.09;79.32;96899.09;4130888;28;21235;-84
2022/04/22 01:30:58;;;;;;;17.57;13.67;;;;;;;10.06;79.44;96903.75;4123584;28;21112;-84
2022/04/22 01:33:02;;;;;;;15.57;13.20;;;;;;;10.07;79.33;96894.97;4110527;28;20699;-83
2022/04/22 01:35:06;;;;;;;18.07;13.30;;;;;;;10.07;78.81;96889.75;4112772;28;21199;-84
2022/04/22 01:37:10;;;;;;;18.00;13.17;;;;;;;10.06;79.34;96885.53;4119218;28;21202;-84
2022/04/22 01:39:14;;;;;;;18.43;13.27;;;;;;;10.08;78.88;96888.81;4113051;28;20630;-82
2022/04/22 01:41:18;;;;;;;19.70;13.50;;;;;;;10.07;79.51;96881.94;4113862;28;20737;-82
2022/04/22 01:43:21;;;;;;;18.50;14.37;;;;;;;10.09;79.44;96890.47;4109290;28;21634;-82
2022/04/22 01:45:24;;;;;;;17.80;13.90;;;;;;;10.07;79.47;96880.19;4130664;28;20609;-82
2022/04/22 01:47:29;;;;;;;15.20;12.83;;;;;;;10.06;79.36;96875.91;4125715;28;20637;-81
2022/04/22 01:49:32;;;;;;;20.27;15.90;;;;;;;10.02;79.45;96881.53;4128923;28;20617;-83
2022/04/22 01:51:36;;;;;;;18.87;14.47;;;;;;;10.02;79.14;96878.91;4112913;28;20666;-83
2022/04/22 01:53:39;;;;;;;20.17;14.70;;;;;;;9.96;80.10;96875.03;4109828;28;20678;-83
2022/04/22 01:55:44;;;;;;;17.53;13.87;;;;;;;9.94;79.68;96876.16;4110610;28;20635;-83
2022/04/22 01:57:47;;;;;;;16.20;14.27;;;;;;;9.94;80.01;96870.94;4112257;28;20637;-84
2022/04/22 01:59:51;;;;;;;19.27;14.30;;;;;;;9.95;79.89;96867.38;4111393;28;20614;-84
2022/04/22 02:01:55;;;;;;;18.67;13.97;;;;;;;9.96;80.12;96869.03;4125229;28;21300;-84
2022/04/22 02:04:00;;;;;;;19.20;15.33;;;;;;;9.96;79.53;96859.41;4113135;28;20643;-84
2022/04/22 02:06:04;;;;;;;19.73;15.30;;;;;;;9.97;79.92;96852.44;4112806;28;20630;-84
2022/04/22 02:08:08;;;;;;;18.80;14.73;;;;;;;9.93;79.15;96861.44;4113448;28;21029;-84
2022/04/22 02:10:11;;;;;;;19.70;14.60;;;;;;;9.90;79.42;96857.31;4123450;28;20720;-84
2022/04/22 02:12:16;;;;;;;21.27;16.53;;;;;;;9.86;79.19;96850.72;4112218;28;20629;-84
2022/04/22 02:14:20;;;;;;;18.63;14.07;;;;;;;9.83;80.12;96854.53;4128073;28;21201;-84
2022/04/22 02:16:23;;;;;;;22.50;17.00;;;;;;;9.80;80.81;96857.41;4128587;28;21142;-84
2022/04/22 02:18:27;;;;;;;23.67;16.00;;;;;;;9.75;79.92;96852.59;4125043;28;21493;-84
2022/04/22 02:20:30;;;;;;;20.90;16.50;;;;;;;9.76;80.75;96853.41;4111815;28;20617;-84
2022/04/22 02:22:34;;;;;;;22.73;16.47;;;;;;;9.72;80.16;96852.84;4112488;28;20638;-84
2022/04/22 02:24:38;;;;;;;20.07;15.43;;;;;;;9.73;80.59;96856.28;4127590;28;20643;-84
2022/04/22 02:29:03;;;;;;;18.80;15.30;;;;;;;9.71;80.02;96847.75;4111996;28;21065;-84
2022/04/22 02:31:07;;;;;;;23.97;15.67;;;;;;;9.69;80.39;96852.28;4112255;28;20626;-84
2022/04/22 02:33:13;;;;;;;22.23;17.23;;;;;;;9.64;80.48;96844.06;4111434;28;20686;-84
2022/04/22 02:35:19;;;;;;;20.97;15.70;;;;;;;9.63;80.01;96842.41;4112504;28;21220;-84
2022/04/22 02:37:23;;;;;;;23.60;16.43;;;;;;;9.64;79.68;96844.88;4126969;28;20646;-84
2022/04/22 02:39:26;;;;;;;22.60;16.90;;;;;;;9.60;80.30;96827.03;4124279;28;20730;-84
2022/04/22 02:46:15;;;;;;;22.40;16.93;;;;;;;9.66;80.96;96829.94;4110401;28;21034;-84
2022/04/22 02:48:18;;;;;;;22.33;16.70;;;;;;;9.68;80.23;96824.59;4112930;28;20646;-84
2022/04/22 02:50:22;;;;;;;19.60;15.77;;;;;;;9.67;80.75;96822.97;4113278;28;20737;-84
2022/04/22 02:52:27;;;;;;;21.97;16.63;;;;;;;9.68;80.39;96825.44;4111129;28;20632;-84
2022/04/22 02:54:30;;;;;;;20.00;15.60;;;;;;;9.64;81.55;96816.25;4111996;28;20778;-84
2022/04/22 02:56:35;;;;;;;20.70;15.83;;;;;;;9.64;81.56;96816.25;4112300;28;21061;-84
2022/04/22 02:58:40;;;;;;;18.63;15.03;;;;;;;9.63;81.62;96814.56;4109957;28;20678;-84
2022/04/22 03:00:46;;;;;;;21.80;16.57;;;;;;;9.60;81.50;96807.03;4123554;28;20985;-84
2022/04/22 03:02:51;;;;;;;19.63;15.73;;;;;;;9.54;81.59;96804.13;4126455;28;21171;-84
2022/04/22 03:04:58;;;;;;;20.50;15.77;;;;;;;9.50;80.73;96810.53;4126927;28;21078;-84
2022/04/22 03:07:06;;;;;;;21.53;15.83;;;;;;;9.46;81.18;96811.78;4126418;28;20651;-84
2022/04/22 03:09:10;;;;;;;25.93;18.60;;;;;;;9.35;81.19;96801.44;4112815;28;21086;-84
2022/04/22 03:11:20;;;;;;;22.93;17.37;;;;;;;9.39;81.60;96805.41;4127822;28;20632;-84
2022/04/22 03:13:26;;;;;;;23.13;17.93;;;;;;;9.38;82.49;96804.59;4115697;28;20753;-84
2022/04/22 03:15:31;;;;;;;22.00;16.97;;;;;;;9.36;81.34;96800.47;4130348;28;20636;-84
2022/04/22 03:17:39;;;;;;;21.57;17.47;;;;;;;9.36;82.61;96804.88;4114236;28;20713;-84
2022/04/22 03:19:47;;;;;;;24.77;18.50;;;;;;;9.36;81.61;96797.88;4126702;28;20639;-84
2022/04/22 03:21:51;;;;;;;25.73;19.13;;;;;;;9.36;81.19;96805.69;4111755;28;20625;-84
2022/04/22 03:23:56;;;;;;;24.30;18.40;;;;;;;9.36;81.94;96791.84;4114102;28;20617;-84
2022/04/22 03:25:59;;;;;;;26.20;19.20;;;;;;;9.34;82.86;96794.59;4116180;28;20714;-84
2022/04/22 03:28:04;;;;;;;24.97;18.83;;;;;;;9.35;82.38;96791.03;4111911;28;21004;-84
2022/04/22 03:30:09;;;;;;;24.67;18.13;;;;;;;9.33;82.63;96787.72;4115142;28;21060;-84
2022/04/22 03:32:12;;;;;;;27.60;19.50;;;;;;;9.33;81.80;96781.72;4115428;28;21083;-84
2022/04/22 03:34:16;;;;;;;28.13;18.87;;;;;;;9.34;82.36;96780.75;4115340;28;20786;-84
2022/04/22 03:36:20;;;;;;;25.57;18.57;;;;;;;9.36;82.20;96776.25;4114599;28;20632;-84
2022/04/22 03:38:25;;;;;;;26.90;19.10;;;;;;;9.37;82.73;96785.69;4112740;28;20723;-84
2022/04/22 03:40:28;;;;;;;27.10;18.90;;;;;;;9.38;82.54;96780.34;4125351;28;21020;-84
2022/04/22 03:42:32;;;;;;;27.83;20.50;;;;;;;9.33;82.50;96777.31;4111970;28;20736;-84
2022/04/22 03:44:36;;;;;;;31.03;20.87;;;;;;;9.32;82.07;96780.91;4115592;28;20679;-84
2022/04/22 03:46:40;;;;;;;27.33;19.20;;;;;;;9.26;82.00;96781.41;4106683;28;21258;-84
2022/04/22 03:48:43;;;;;;;27.40;20.57;;;;;;;9.23;82.07;96779.06;4112036;28;20669;-85
2022/04/22 03:50:46;;;;;;;25.17;18.87;;;;;;;9.18;82.72;96777.78;4115229;28;20669;-84
2022/04/22 03:52:51;;;;;;;25.30;18.23;;;;;;;9.13;81.59;96777.34;4114080;28;20722;-84
2022/04/22 03:54:54;;;;;;;27.73;20.00;;;;;;;9.10;82.42;96785.41;4111766;28;20665;-84
2022/04/22 03:59:19;;;;;;;29.07;20.60;;;;;;;9.04;83.36;96791.13;4114955;28;20641;-84
2022/04/22 04:01:22;;;;;;;26.93;19.47;;;;;;;8.96;83.23;96783.97;4129173;28;21441;-84
2022/04/22 04:03:26;;;;;;;27.25;19.90;;;;;;;8.97;83.68;96784.78;4113596;28;20641;-84
2022/04/22 04:05:31;;;;;;;29.70;20.50;;;;;;;8.95;84.75;96803.09;4126302;28;20558;-84
2022/04/22 04:07:34;;;;;;;31.53;22.13;;;;;;;8.95;83.98;96800.50;4114272;28;20682;-84
2022/04/22 04:16:41;;;;;;;30.70;21.55;;;;;;;8.92;84.95;96812.13;4128835;28;20218;-84
2022/04/22 04:18:44;;;;;;;28.90;20.90;;;;;;;8.91;84.79;96810.47;4104661;28;20257;-84
2022/04/22 04:23:17;;;;;;;29.17;21.02;;;;;;;8.87;84.49;96819.44;4112676;28;20709;-84
2022/04/22 04:25:22;;;;;;;28.27;20.87;;;;;;;8.87;84.18;96820.28;4113268;28;20220;-84
2022/04/22 04:27:26;;;;;;;31.88;22.40;;;;;;;8.85;85.65;96811.78;4126465;28;20627;-84
2022/04/22 04:29:29;;;;;;;29.35;21.10;;;;;;;8.82;85.19;96811.22;4109656;28;20252;-84
2022/04/22 04:31:33;;;;;;;30.33;22.02;;;;;;;8.80;85.68;96805.31;4114418;28;20295;-84
2022/04/22 04:33:37;;;;;;;29.43;21.93;;;;;;;8.86;84.71;96812.63;4126807;28;20230;-84
2022/04/22 04:35:46;;;;;;;32.73;22.70;;;;;;;8.81;85.48;96814.75;4129335;28;20661;-84
2022/04/22 04:37:49;;;;;;;31.90;22.53;;;;;;;8.81;84.25;96799.16;4112213;28;20853;-83
2022/04/22 04:39:54;;;;;;;28.95;21.23;;;;;;;8.72;86.01;96800.75;4111612;28;20617;-84
2022/04/22 04:42:03;;;;;;;32.97;23.10;;;;;;;8.75;84.72;96802.25;4112362;28;20212;-84
2022/04/22 04:44:07;;;;;;;34.67;23.63;;;;;;;8.76;84.42;96798.72;4115348;28;20204;-84
2022/04/22 04:46:11;;;;;;;33.20;22.37;;;;;;;8.80;86.02;96797.53;4111475;28;20204;-84
2022/04/22 04:48:15;;;;;;;31.15;22.52;;;;;;;8.82;84.81;96800.81;4113149;28;20690;-84
2022/04/22 04:50:20;;;;;;;29.98;22.02;;;;;;;8.85;85.65;96801.38;4112984;28;20251;-84
2022/04/22 04:52:27;;;;;;;29.97;22.00;;;;;;;8.89;85.35;96796.78;4107246;28;20304;-84
2022/04/22 04:54:31;;;;;;;30.92;22.50;;;;;;;8.97;85.41;96805.56;4129432;28;20670;-84
2022/04/22 04:56:35;;;;;;;30.25;21.55;;;;;;;9.02;83.96;96801.66;4126583;28;20212;-83
2022/04/22 04:58:41;;;;;;;30.57;21.97;;;;;;;9.00;85.06;96797.53;4114169;28;20711;-84
2022/04/22 05:00:45;;;;;;;30.40;22.47;;;;;;;9.07;85.02;96801.28;4110179;28;20671;-84
2022/04/22 05:02:48;;;;;;;28.10;21.20;;;;;;;9.11;85.12;96803.50;4125481;28;20626;-84
2022/04/22 05:04:54;;;;;;;31.03;21.47;;;;;;;9.16;84.25;96800.50;4111707;28;20735;-84
2022/04/22 05:06:57;;;;;;;28.30;21.27;;;;;;;9.09;84.88;96791.56;4111692;28;21310;-84
2022/04/22 05:09:01;;;;;;;31.52;22.45;;;;;;;9.10;85.07;96796.63;4113077;28;20631;-84
2022/04/22 05:11:04;;;;;;;29.60;22.10;;;;;;;9.14;84.71;96799.78;4109882;28;20304;-84
2022/04/22 05:13:08;;;;;;;32.17;23.67;;;;;;;9.16;83.39;96798.72;4112104;28;20212;-84
2022/04/22 05:15:12;;;;;;;33.07;22.50;;;;;;;9.26;85.28;96797.00;4113305;28;20664;-84
2022/04/22 05:17:16;;;;;;;32.03;23.30;;;;;;;9.39;84.50;96797.63;4112704;28;20640;-84
2022/04/22 05:19:21;;;;;;;30.23;22.43;;;;;;;9.58;84.17;96802.94;4110747;28;20740;-84
2022/04/22 05:21:24;;;;;;;30.75;22.83;;;;;;;9.80;83.06;96800.94;4114077;28;20671;-84
2022/04/22 05:23:27;;;;;;;32.80;24.50;;;;;;;10.01;82.58;96802.56;4128909;28;20214;-83
2022/04/22 05:25:31;;;;;;;32.40;23.17;;;;;;;10.23;82.24;96799.72;4128591;28;20660;-84
2022/04/22 05:27:34;;;;;;;29.93;21.20;;;;;;;10.45;81.18;96807.31;4113520;28;21206;-84
2022/04/22 05:34:20;;;;;;;28.27;22.07;;;;;;;10.95;78.53;96807.88;4111286;28;20643;-84
2022/04/22 05:36:23;;;;;;;28.53;21.33;;;;;;;11.10;77.92;96806.50;4112993;28;20660;-84
2022/04/22 05:38:27;;;;;;;30.23;21.50;;;;;;;11.25;78.39;96805.09;4128165;28;20649;-83
2022/04/22 05:40:31;;;;;;;30.53;22.60;;;;;;;11.39;76.65;96812.47;4113257;28;21279;-84
2022/04/22 05:42:37;;;;;;;28.87;21.27;;;;;;;11.50;76.57;96805.34;4118899;28;20834;-84
2022/04/22 05:44:41;;;;;;;34.30;27.97;;;;;;;11.61;76.34;96806.97;4116916;28;20725;-84
2022/04/22 05:46:44;;;;;;;29.30;22.40;;;;;;;11.75;74.84;96800.28;4109981;28;20648;-84
2022/04/22 05:48:55;;;;;;;31.50;25.37;;;;;;;11.89;75.82;96799.84;4113111;28;20989;-84
2022/04/22 05:50:58;;;;;;;30.67;23.37;;;;;;;12.08;75.65;96798.91;4112239;28;20661;-84
2022/04/22 05:53:01;;;;;;;26.40;22.13;;;;;;;12.24;74.93;96811.19;4112284;28;20670;-84
2022/04/22 05:55:06;;;;;;;36.17;23.70;;;;;;;12.22;73.73;96806.28;4112076;28;20647;-84
2022/04/22 05:57:10;;;;;;;26.90;21.57;;;;;;;12.30;74.03;96813.22;4110244;28;20624;-84
2022/04/22 05:59:13;;;;;;;27.17;21.30;;;;;;;12.44;73.65;96807.50;4123527;28;21025;-84
2022/04/22 06:01:16;;;;;;;27.53;21.07;;;;;;;12.59;74.10;96819.09;4127037;28;20703;-84
2022/04/22 06:03:20;;;;;;;30.83;23.90;;;;;;;12.73;72.02;96815.97;4113146;28;20639;-84
2022/04/22 06:05:25;;;;;;;28.33;21.33;;;;;;;12.93;72.81;96814.88;4113581;28;20967;-84
2022/04/22 06:07:28;;;;;;;26.40;21.07;;;;;;;13.09;71.66;96817.66;4112539;28;20709;-84
2022/04/22 06:11:52;;;;;;;28.07;20.80;;;;;;;13.21;70.68;96812.00;4108525;28;20669;-84
2022/04/22 06:13:56;;;;;;;26.60;20.93;;;;;;;13.46;71.14;96816.47;4113774;28;20668;-84
2022/04/22 06:15:59;;;;;;;26.33;21.40;;;;;;;13.59;69.11;96811.63;4127165;28;20674;-84
2022/04/22 06:18:02;;;;;;;25.17;20.40;;;;;;;13.75;69.14;96804.69;4111680;28;20655;-84
2022/04/22 06:20:06;;;;;;;25.40;20.27;;;;;;;13.94;68.75;96807.09;4127951;28;20645;-84
2022/04/22 06:22:11;;;;;;;25.83;22.23;;;;;;;14.12;68.51;96806.06;4110447;28;20637;-84
2022/04/22 06:24:14;;;;;;;25.70;19.70;;;;;;;14.19;67.47;96797.41;4114187;28;20622;-84
2022/04/22 06:26:18;;;;;;;24.83;20.50;;;;;;;14.20;67.27;96793.78;4113103;28;20617;-84
2022/04/22 06:28:21;;;;;;;26.00;22.10;;;;;;;14.37;67.64;96797.28;4128018;28;20620;-84
2022/04/22 06:30:25;;;;;;;26.80;21.13;;;;;;;14.52;67.08;96798.31;4107691;28;20621;-84
2022/04/22 06:32:29;;;;;;;26.00;21.50;;;;;;;14.60;67.10;96786.03;4114250;28;21266;-84
2022/04/22 06:34:33;;;;;;;26.77;20.70;;;;;;;14.58;66.29;96800.31;4109360;28;20664;-84
2022/04/22 06:36:37;;;;;;;27.80;20.40;;;;;;;14.50;66.74;96797.66;4110499;28;20666;-84
2022/04/22 06:38:45;;;;;;;25.80;21.03;;;;;;;14.59;66.40;96798.31;4110984;28;20680;-84
2022/04/22 06:45:47;;;;;;;23.97;20.17;;;;;;;14.66;65.61;96801.16;4117211;28;20628;-84
2022/04/22 06:47:51;;;;;;;23.80;20.10;;;;;;;14.44;65.84;96800.94;4113991;28;20661;-84
2022/04/22 06:49:54;;;;;;;24.47;20.10;;;;;;;14.42;65.92;96795.84;4114723;28;20706;-84
2022/04/22 06:51:58;;;;;;;25.03;19.90;;;;;;;14.25;66.89;96796.78;4116177;28;21239;-83
2022/04/22 06:54:03;;;;;;;26.97;21.40;;;;;;;14.28;66.72;96798.25;4115810;28;20679;-84
2022/04/22 06:56:08;;;;;;;24.77;20.77;;;;;;;14.20;66.20;96791.16;4115487;28;20668;-84
2022/04/22 06:58:12;;;;;;;24.63;19.27;;;;;;;14.22;66.84;96796.25;4113114;28;20739;-84
2022/04/22 07:00:16;;;;;;;27.73;21.70;;;;;;;14.42;66.46;96793.22;4114396;28;21031;-84
2022/04/22 07:02:20;;;;;;;30.23;22.70;;;;;;;14.73;66.82;96796.88;4113063;28;20628;-84
2022/04/22 07:04:25;;;;;;;29.23;22.87;;;;;;;14.99;66.42;96792.31;4115042;28;20693;-84
2022/04/22 07:06:28;;;;;;;28.60;22.73;;;;;;;15.25;66.14;96788.59;4115543;28;21007;-83
2022/04/22 07:08:32;;;;;;;23.40;19.67;;;;;;;15.41;65.63;96788.56;4115469;28;21138;-84
2022/04/22 07:10:37;;;;;;;23.80;19.30;;;;;;;15.48;65.78;96785.09;4115235;28;20650;-84
2022/04/22 07:12:41;;;;;;;23.73;19.97;;;;;;;15.76;64.73;96781.13;4116168;28;20627;-84
2022/04/22 07:14:47;;;;;;;22.80;19.73;;;;;;;15.62;62.89;96776.53;4116545;28;20637;-84
2022/04/22 07:16:51;;;;;;;24.67;20.13;;;;;;;15.82;63.89;96783.88;4115129;28;21001;-84
2022/04/22 07:18:57;;;;;;;22.50;18.63;;;;;;;16.05;64.04;96792.69;4114660;28;20629;-83
2022/04/22 07:21:01;;;;;;;21.40;18.43;;;;;;;16.24;62.54;96789.69;4112419;28;20658;-84
2022/04/22 07:23:05;;;;;;;21.70;18.70;;;;;;;16.36;63.21;96791.78;4112122;28;20616;-84
2022/04/22 07:25:10;;;;;;;22.40;19.03;;;;;;;16.37;62.32;96787.31;4114105;28;20697;-84
2022/04/22 07:27:15;;;;;;;23.40;19.77;;;;;;;16.37;62.95;96789.94;4128428;28;21229;-84
2022/04/22 07:29:19;;;;;;;22.57;18.83;;;;;;;16.35;61.85;96794.56;4114616;28;21030;-84
2022/04/22 07:31:23;;;;;;;22.00;19.57;;;;;;;16.27;62.82;96789.34;4127998;28;20749;-84
2022/04/22 07:33:26;;;;;;;24.10;19.10;;;;;;;16.33;62.70;96786.03;4129182;28;20738;-84
2022/04/22 07:35:30;;;;;;;24.97;19.53;;;;;;;16.22;62.82;96795.13;4108800;28;20734;-83
2022/04/22 07:37:35;;;;;;;22.67;19.70;;;;;;;16.33;61.51;96788.69;4130935;28;20635;-84
2022/04/22 07:39:44;;;;;;;22.77;19.97;;;;;;;16.55;61.60;96781.63;4112747;28;21240;-84
2022/04/22 07:41:49;;;;;;;23.00;20.07;;;;;;;16.76;62.24;96786.28;4131863;28;21218;-84
2022/04/22 07:48:37;;;;;;;24.23;19.90;;;;;;;17.36;60.78;96780.91;4127776;28;21009;-83
2022/04/22 07:50:40;;;;;;;23.73;19.57;;;;;;;17.50;60.71;96769.59;4127576;28;20669;-83
2022/04/22 07:52:44;;;;;;;23.53;19.90;;;;;;;17.24;59.31;96776.22;4115400;28;20628;-83
2022/04/22 07:54:47;;;;;;;22.83;19.03;;;;;;;17.01;61.64;96770.13;4115336;28;20628;-82
2022/04/22 07:56:51;;;;;;;22.27;19.50;;;;;;;17.23;60.95;96770.16;4106383;28;20660;-82
2022/04/22 07:58:56;;;;;;;21.67;19.37;;;;;;;17.44;61.20;96772.94;4115103;28;20671;-82
2022/04/22 08:01:00;;;;;;;21.70;18.33;;;;;;;17.55;60.07;96770.66;4113407;28;21263;-82
2022/04/22 08:03:03;;;;;;;22.10;18.67;;;;;;;17.68;60.35;96765.59;4114700;28;20675;-82
2022/04/22 08:05:09;;;;;;;22.27;19.57;;;;;;;17.71;60.40;96762.59;4125998;28;20718;-83
2022/04/22 08:07:13;;;;;;;22.03;19.13;;;;;;;17.97;60.94;96776.97;4111800;28;20608;-84
2022/04/22 08:09:26;;;;;;;21.33;18.90;;;;;;;18.12;59.74;96758.50;4126930;28;20659;-84
2022/04/22 08:11:30;;;;;;;20.10;17.83;;;;;;;18.26;60.24;96761.16;4114217;28;20611;-84
2022/04/22 08:13:34;;;;;;;21.17;18.63;;;;;;;18.44;58.88;96759.75;4113882;28;20668;-84
2022/04/22 08:15:39;;;;;;;22.67;18.40;;;;;;;18.57;59.15;96770.50;4130237;28;20631;-84
2022/04/22 08:17:43;;;;;;;22.90;17.83;;;;;;;18.67;59.12;96765.75;4129650;28;21075;-83
2022/04/22 08:19:46;;;;;;;20.20;18.10;;;;;;;18.77;57.95;96758.31;4111054;28;20715;-84
2022/04/22 08:21:50;;;;;;;22.33;18.27;;;;;;;18.83;57.96;96760.19;4116025;28;21040;-84
2022/04/22 08:23:53;;;;;;;21.20;18.20;;;;;;;18.72;57.91;96760.69;4113731;28;20625;-84
2022/04/22 08:25:57;;;;;;;21.37;18.70;;;;;;;18.62;58.30;96757.53;4129940;28;20635;-84
2022/04/22 08:28:02;;;;;;;21.03;18.83;;;;;;;18.77;58.98;96760.94;4111172;28;20724;-84
2022/04/22 08:30:06;;;;;;;21.80;18.17;;;;;;;18.73;58.75;96759.66;4112053;28;20635;-84
2022/04/22 08:32:11;;;;;;;20.07;17.90;;;;;;;18.88;58.80;96761.28;4128865;28;20666;-84
2022/04/22 08:34:14;;;;;;;20.37;18.27;;;;;;;19.03;59.15;96754.16;4126457;28;20675;-84
2022/04/22 08:36:18;;;;;;;20.63;18.47;;;;;;;19.25;59.41;96753.13;4129506;28;20666;-84
2022/04/22 08:38:22;;;;;;;19.10;16.60;;;;;;;19.14;58.73;96752.78;4129365;28;20663;-83
2022/04/22 08:40:27;;;;;;;20.33;18.03;;;;;;;19.06;57.86;96745.00;4113489;28;20632;-84
2022/04/22 08:42:30;;;;;;;20.50;18.33;;;;;;;19.07;58.91;96744.00;4112924;28;20993;-84
2022/04/22 08:44:39;;;;;;;21.50;17.60;;;;;;;19.25;58.62;96745.19;4110543;28;20676;-84
2022/04/22 08:51:25;;;;;;;19.90;17.80;;;;;;;19.58;58.25;96746.28;4113490;28;20691;-84
2022/04/22 08:53:30;;;;;;;20.57;17.13;;;;;;;19.66;57.65;96749.56;4112389;28;20656;-84
2022/04/22 08:55:34;;;;;;;18.20;16.30;;;;;;;19.48;57.53;96743.13;4128410;28;20651;-84
2022/04/22 08:57:38;;;;;;;19.10;17.10;;;;;;;19.59;55.14;96740.78;4111746;28;20648;-84
2022/04/22 08:59:42;;;;;;;17.97;16.10;;;;;;;19.51;58.21;96735.63;4126040;28;20662;-85
2022/04/22 09:01:45;;;;;;;20.17;17.40;;;;;;;19.66;58.89;96738.97;4114132;28;20656;-84
2022/04/22 09:03:49;;;;;;;17.97;15.70;;;;;;;19.80;56.81;96732.78;4109903;28;21063;-84
2022/04/22 09:05:53;;;;;;;19.67;17.57;;;;;;;19.75;57.28;96731.72;4113284;28;20725;-84
2022/04/22 09:07:57;;;;;;;20.67;17.27;;;;;;;19.83;57.29;96729.75;4112784;28;21062;-84
2022/04/22 09:10:01;;;;;;;20.10;17.97;;;;;;;19.98;56.87;96733.09;4127500;28;20666;-84
2022/04/22 09:12:09;;;;;;;20.90;18.80;;;;;;;20.06;57.66;96720.53;4110072;28;21057;-84
2022/04/22 09:14:17;;;;;;;20.50;18.30;;;;;;;19.84;55.95;96715.50;4114644;28;20628;-84
2022/04/22 09:16:20;;;;;;;22.23;17.50;;;;;;;19.37;55.33;96705.81;4125695;28;20681;-84
2022/04/22 09:18:25;;;;;;;20.10;16.47;;;;;;;19.17;57.24;96715.41;4128114;28;20663;-84
2022/04/22 09:20:30;;;;;;;19.03;17.13;;;;;;;19.28;56.71;96702.50;4115555;28;20635;-84
2022/04/22 09:22:36;;;;;;;18.40;16.50;;;;;;;19.36;56.81;96704.19;4116797;28;21073;-84
2022/04/22 09:24:50;;;;;;;17.80;15.90;;;;;;;19.56;58.53;96711.22;4113089;28;20648;-84
2022/04/22 09:27:04;;;;;;;19.63;17.40;;;;;;;19.62;56.09;96713.94;4113344;28;20624;-84
2022/04/22 09:29:10;;;;;;;17.80;15.83;;;;;;;19.82;58.01;96711.41;4113168;28;20640;-84
2022/04/22 09:31:13;;;;;;;18.33;16.40;;;;;;;20.01;56.41;96711.53;4109329;28;20656;-84
2022/04/22 09:33:17;;;;;;;18.23;16.33;;;;;;;19.93;55.88;96709.06;4111447;28;20617;-84
2022/04/22 09:35:21;;;;;;;20.20;17.83;;;;;;;20.00;57.46;96699.34;4110906;28;20639;-84
2022/04/22 09:44:36;;;;;;;20.97;16.97;;;;;;;19.22;57.00;96689.22;4113570;28;21203;-84
2022/04/22 09:46:39;;;;;;;19.30;17.20;;;;;;;19.18;56.33;96683.50;4112847;28;21047;-84
2022/04/22 09:49:03;;;;;;;19.80;17.77;;;;;;;19.23;56.61;96683.75;4124538;28;20821;-84
2022/04/22 09:51:20;;;;;;;20.80;16.23;;;;;;;19.30;57.68;96684.59;4112838;28;21033;-83
2022/04/22 09:53:34;;;;;;;19.10;17.20;;;;;;;19.40;57.29;96677.97;4106458;28;20715;-84
2022/04/22 09:55:48;;;;;;;18.93;16.93;;;;;;;19.54;58.16;96679.69;4110814;28;21428;-84
2022/04/22 09:57:52;;;;;;;18.33;16.43;;;;;;;19.37;55.95;96684.66;4112784;28;21089;-84
2022/04/22 09:59:56;;;;;;;18.80;16.40;;;;;;;19.35;55.92;96682.22;4111924;28;20644;-85
2022/04/22 10:02:00;;;;;;;18.27;16.37;;;;;;;19.40;58.16;96679.81;4112459;28;21098;-84
2022/04/22 10:04:11;;;;;;;19.53;17.53;;;;;;;19.53;56.56;96686.00;4126477;28;20639;-84
2022/04/22 10:06:15;;;;;;;18.67;16.40;;;;;;;19.52;58.01;96679.06;4128466;28;20635;-84
2022/04/22 10:08:20;;;;;;;17.07;15.33;;;;;;;19.53;57.53;96677.22;4113324;28;20652;-84
2022/04/22 10:10:30;;;;;;;21.00;17.27;;;;;;;19.64;56.97;96674.88;4126653;28;20650;-84
2022/04/22 10:12:36;;;;;;;21.33;17.73;;;;;;;19.52;56.93;96665.84;4104896;28;20731;-84
2022/04/22 10:14:40;;;;;;;17.77;15.97;;;;;;;19.61;57.39;96666.50;4112263;28;20963;-84
2022/04/22 10:16:43;;;;;;;19.30;17.10;;;;;;;19.76;58.10;96659.28;4112713;28;20715;-84
2022/04/22 10:18:47;;;;;;;20.50;17.80;;;;;;;19.66;56.06;96654.31;4129530;28;20663;-84
2022/04/22 10:20:51;;;;;;;21.90;17.00;;;;;;;19.31;56.62;96651.88;4128254;28;20715;-84
2022/04/22 10:22:55;;;;;;;19.80;17.80;;;;;;;19.07;56.15;96652.28;4131424;28;20616;-84
2022/04/22 10:24:59;;;;;;;21.27;19.10;;;;;;;18.85;57.81;96659.59;4129338;28;20634;-84
2022/04/22 10:27:03;;;;;;;18.10;16.30;;;;;;;18.80;58.26;96654.06;4131707;28;20671;-84